createdAt,value
2022-08-09T00:02:31.345Z,102880.16
2022-08-09T00:05:00.837Z,102889.19
2022-08-09T00:07:45.276Z,102881.00
2022-08-09T00:10:14.409Z,102879.28
2022-08-09T00:12:52.318Z,102881.06
2022-08-09T00:15:35.397Z,102876.56
2022-08-09T00:18:11.994Z,102879.28
2022-08-09T00:20:42.202Z,102866.72
2022-08-09T00:23:56.241Z,102878.38
2022-08-09T00:26:05.191Z,102872.16
2022-08-09T00:28:32.170Z,102870.31
2022-08-09T00:31:01.344Z,102867.63
2022-08-09T00:33:51.228Z,102869.41
2022-08-09T00:36:18.485Z,102870.41
2022-08-09T00:38:45.353Z,102880.34
2022-08-09T00:44:11.824Z,102871.31
2022-08-09T00:44:16.261Z,102872.16
2022-08-09T00:46:55.869Z,102870.41
2022-08-09T00:49:28.211Z,102872.31
2022-08-09T00:51:57.355Z,102864.13
2022-08-09T00:54:31.376Z,102866.81
2022-08-09T00:57:02.066Z,102870.50
2022-08-09T00:59:41.253Z,102877.75
2022-08-09T01:02:16.056Z,102885.03
2022-08-09T01:05:02.617Z,102875.03
2022-08-09T01:08:01.143Z,102884.09
2022-08-09T01:10:37.284Z,102884.94
2022-08-09T01:13:18.844Z,102876.00
2022-08-09T01:15:52.098Z,102878.69
2022-08-09T01:18:29.567Z,102877.81
2022-08-09T01:21:16.204Z,102881.41
2022-08-09T01:24:01.748Z,102877.84
2022-08-09T01:26:33.300Z,102883.28
2022-08-09T01:29:02.046Z,102883.38
2022-08-09T01:32:30.308Z,102883.31
2022-08-09T01:34:18.802Z,102887.88
2022-08-09T01:36:49.042Z,102886.88
2022-08-09T01:39:16.767Z,102887.88
2022-08-09T01:41:53.616Z,102888.75
2022-08-09T01:44:28.237Z,102887.00
2022-08-09T01:46:54.914Z,102886.06
2022-08-09T01:49:24.192Z,102879.81
2022-08-09T01:52:07.429Z,102888.84
2022-08-09T01:54:40.281Z,102888.84
2022-08-09T01:57:14.935Z,102884.34
2022-08-09T01:59:51.410Z,102885.31
2022-08-09T02:02:20.962Z,102894.28
2022-08-09T02:04:49.307Z,102896.13
2022-08-09T02:08:35.815Z,102895.22
2022-08-09T02:10:11.425Z,102883.44
2022-08-09T02:12:39.328Z,102885.31
2022-08-09T02:15:07.858Z,102890.75
2022-08-09T02:18:01.206Z,102896.22
2022-08-09T02:20:26.421Z,102884.41
2022-08-09T02:23:07.163Z,102890.78
2022-08-09T02:25:42.335Z,102879.97
2022-08-09T02:28:19.398Z,102881.72
2022-08-09T02:30:49.883Z,102879.88
2022-08-09T02:33:58.474Z,102879.00
2022-08-09T02:36:21.050Z,102880.00
2022-08-09T02:38:51.178Z,102884.53
2022-08-09T02:41:22.871Z,102876.41
2022-08-09T02:43:54.837Z,102876.38
2022-08-09T02:46:24.590Z,102883.59
2022-08-09T02:48:51.659Z,102877.34
2022-08-09T02:51:18.783Z,102878.19
2022-08-09T02:53:56.643Z,102878.25
2022-08-09T02:56:28.711Z,102878.19
2022-08-09T02:58:55.949Z,102876.47
2022-08-09T03:01:29.118Z,102883.66
2022-08-09T03:04:17.351Z,102888.19
2022-08-09T03:06:46.468Z,102880.06
2022-08-09T03:09:17.413Z,102885.47
2022-08-09T03:12:06.054Z,102878.25
2022-08-09T03:14:32.178Z,102879.22
2022-08-09T03:17:02.314Z,102873.78
2022-08-09T03:19:59.115Z,102876.47
2022-08-09T03:22:25.536Z,102882.00
2022-08-09T03:25:05.706Z,102879.31
2022-08-09T03:27:44.794Z,102880.25
2022-08-09T03:30:29.670Z,102880.22
2022-08-09T03:33:12.953Z,102885.66
2022-08-09T03:36:13.414Z,102886.50
2022-08-09T03:38:32.862Z,102883.81
2022-08-09T03:40:59.682Z,102891.94
2022-08-09T03:43:31.633Z,102882.06
2022-08-09T03:46:05.449Z,102892.88
2022-08-09T03:48:51.380Z,102883.88
2022-08-09T03:51:55.587Z,102883.94
2022-08-09T03:54:11.029Z,102880.34
2022-08-09T03:56:38.961Z,102885.75
2022-08-09T03:59:13.841Z,102871.34
2022-08-09T04:01:49.180Z,102878.56
2022-08-09T04:04:16.662Z,102887.53
2022-08-09T04:06:48.798Z,102883.94
2022-08-09T04:09:44.339Z,102892.03
2022-08-09T04:12:12.050Z,102900.16
2022-08-09T04:15:02.061Z,102887.53
2022-08-09T04:17:39.329Z,102894.81
2022-08-09T04:20:10.234Z,102894.81
2022-08-09T04:22:37.455Z,102896.69
2022-08-09T04:25:08.684Z,102899.38
2022-08-09T04:27:41.070Z,102887.63
2022-08-09T04:30:14.073Z,102894.84
2022-08-09T04:32:41.153Z,102887.66
2022-08-09T04:35:13.983Z,102898.44
2022-08-09T04:37:46.498Z,102906.53
2022-08-09T04:40:19.263Z,102903.88
2022-08-09T04:42:55.555Z,102911.06
2022-08-09T04:45:23.700Z,102905.69
2022-08-09T04:48:01.132Z,102904.78
2022-08-09T04:50:35.007Z,102903.88
2022-08-09T04:53:12.965Z,102903.88
2022-08-09T04:55:58.433Z,102898.50
2022-08-09T04:58:29.888Z,102903.91
2022-08-09T05:00:59.175Z,102903.91
2022-08-09T05:03:41.201Z,102896.72
2022-08-09T05:06:22.061Z,102904.81
2022-08-09T05:09:00.474Z,102914.72
2022-08-09T05:11:30.463Z,102916.59
2022-08-09T05:13:59.394Z,102912.97
2022-08-09T05:16:28.558Z,102914.75
2022-08-09T05:19:00.305Z,102915.66
2022-08-09T05:21:30.038Z,102905.78
2022-08-09T05:24:01.659Z,102910.31
2022-08-09T05:26:33.922Z,102916.63
2022-08-09T05:29:17.389Z,102914.78
2022-08-09T05:31:56.217Z,102914.81
2022-08-09T05:34:23.181Z,102922.97
2022-08-09T05:36:57.618Z,102918.38
2022-08-09T05:39:29.499Z,102918.41
2022-08-09T05:42:04.533Z,102921.19
2022-08-09T05:44:33.027Z,102919.38
2022-08-09T05:47:05.050Z,102925.75
2022-08-09T05:50:14.842Z,102932.84
2022-08-09T05:52:19.908Z,102936.47
2022-08-09T05:54:46.591Z,102940.06
2022-08-09T05:57:17.615Z,102943.63
2022-08-09T05:59:46.188Z,102940.03
2022-08-09T06:02:16.924Z,102945.47
2022-08-09T06:04:46.102Z,102943.66
2022-08-09T06:07:21.677Z,102942.72
2022-08-09T06:10:01.500Z,102958.00
2022-08-09T06:12:29.936Z,102956.25
2022-08-09T06:15:01.051Z,102954.41
2022-08-09T06:17:40.329Z,102957.13
2022-08-09T06:20:07.983Z,102958.00
2022-08-09T06:22:35.315Z,102963.41
2022-08-09T06:25:02.161Z,102967.00
2022-08-09T06:27:41.404Z,102965.16
2022-08-09T06:30:10.217Z,102976.88
2022-08-09T06:32:58.753Z,102980.47
2022-08-09T06:35:55.824Z,102984.97
2022-08-09T06:38:10.177Z,102986.72
2022-08-09T06:40:38.089Z,102986.72
2022-08-09T06:43:07.655Z,102985.78
2022-08-09T06:46:04.677Z,102979.47
2022-08-09T06:48:30.416Z,102985.72
2022-08-09T06:51:01.006Z,102980.31
2022-08-09T06:53:38.172Z,102992.97
2022-08-09T06:56:06.345Z,102985.72
2022-08-09T07:00:46.372Z,102992.00
2022-08-09T07:01:21.462Z,102991.97
2022-08-09T07:03:52.226Z,102990.16
2022-08-09T07:06:20.840Z,102997.34
2022-08-09T07:08:49.667Z,102996.44
2022-08-09T07:11:23.356Z,103002.75
2022-08-09T07:14:05.603Z,102995.53
2022-08-09T07:16:41.668Z,102986.50
2022-08-09T07:19:15.127Z,102988.28
2022-08-09T07:21:55.216Z,102988.31
2022-08-09T07:24:22.740Z,102977.47
2022-08-09T07:27:00.568Z,102978.31
2022-08-09T07:29:30.719Z,102981.03
2022-08-09T07:32:05.275Z,102978.28
2022-08-09T07:34:32.414Z,102988.19
2022-08-09T07:37:02.516Z,102984.50
2022-08-09T07:39:41.412Z,102993.59
2022-08-09T07:42:09.424Z,102991.78
2022-08-09T07:44:50.881Z,102995.31
2022-08-09T07:47:18.885Z,102982.69
2022-08-09T07:50:04.788Z,102985.47
2022-08-09T07:52:32.795Z,102992.63
2022-08-09T07:54:59.555Z,103003.44
2022-08-09T07:57:35.595Z,102997.09
2022-08-09T08:00:02.894Z,103004.28
2022-08-09T08:02:30.560Z,103009.69
2022-08-09T08:04:57.275Z,103013.28
2022-08-09T08:08:43.881Z,103018.72
2022-08-09T08:10:12.034Z,103012.38
2022-08-09T08:12:43.263Z,103008.78
2022-08-09T08:15:16.632Z,103013.28
2022-08-09T08:17:55.253Z,103004.25
2022-08-09T08:20:30.817Z,103004.25
2022-08-09T08:23:16.376Z,103006.97
2022-08-09T08:25:48.066Z,103010.53
2022-08-09T08:28:18.273Z,103002.38
2022-08-09T08:30:52.505Z,103006.91
2022-08-09T08:33:23.107Z,103011.41
2022-08-09T08:35:58.514Z,103014.97
2022-08-09T08:38:28.414Z,103013.16
2022-08-09T08:40:56.644Z,103013.09
2022-08-09T08:43:24.057Z,103011.25
2022-08-09T08:46:03.750Z,103013.00
2022-08-09T08:48:36.733Z,103003.94
2022-08-09T08:51:04.252Z,103005.72
2022-08-09T08:53:36.815Z,103006.63
2022-08-09T08:56:05.015Z,103001.19
2022-08-09T08:58:33.133Z,103014.72
2022-08-09T09:01:08.864Z,103017.38
2022-08-09T09:03:46.043Z,103018.22
2022-08-09T09:06:18.368Z,103029.03
2022-08-09T09:08:45.682Z,103016.38
2022-08-09T09:11:19.968Z,103019.94
2022-08-09T09:13:56.743Z,103025.28
2022-08-09T09:16:32.438Z,103019.81
2022-08-09T09:22:07.967Z,103027.88
2022-08-09T09:24:43.489Z,103023.28
2022-08-09T09:27:47.223Z,103016.06
2022-08-09T09:30:13.828Z,103016.91
2022-08-09T09:33:15.253Z,103014.09
2022-08-09T09:36:02.884Z,103010.47
2022-08-09T09:38:48.526Z,103003.22
2022-08-09T09:41:28.054Z,103014.97
2022-08-09T09:44:12.645Z,103017.63
2022-08-09T09:46:50.872Z,103008.53
2022-08-09T09:49:23.562Z,103008.47
2022-08-09T09:52:35.576Z,103012.94
2022-08-09T09:55:16.175Z,103018.31
2022-08-09T09:58:19.701Z,103021.03
2022-08-09T10:00:55.858Z,103019.19
2022-08-09T10:03:56.434Z,103025.47
2022-08-09T10:06:47.232Z,103038.13
2022-08-09T10:09:23.234Z,103025.47
2022-08-09T10:12:14.831Z,103024.66
2022-08-09T10:14:48.671Z,103026.44
2022-08-09T10:17:39.931Z,103030.88
2022-08-09T10:20:27.617Z,103033.56
2022-08-09T10:23:20.284Z,103032.59
2022-08-09T10:26:06.307Z,103022.72
2022-08-09T10:28:35.734Z,103017.22
2022-08-09T10:34:18.917Z,103019.00
2022-08-09T10:36:37.173Z,103026.16
2022-08-09T10:39:06.042Z,103022.56
2022-08-09T10:41:42.908Z,103022.53
2022-08-09T10:44:10.093Z,103028.91
2022-08-09T10:47:00.696Z,103017.94
2022-08-09T10:49:51.401Z,103022.44
2022-08-09T10:52:34.743Z,103026.06
2022-08-09T10:55:23.048Z,103020.66
2022-08-09T10:57:52.061Z,103021.47
2022-08-09T11:00:31.246Z,103012.38
2022-08-09T11:03:14.278Z,103006.88
2022-08-09T11:06:18.688Z,103001.41
2022-08-09T11:08:51.299Z,103002.31
2022-08-09T11:11:21.491Z,103004.06
2022-08-09T11:14:32.240Z,102998.63
2022-08-09T11:16:59.020Z,103009.38
2022-08-09T11:20:10.760Z,103019.31
2022-08-09T11:22:47.270Z,103016.56
2022-08-09T11:25:47.319Z,103011.13
2022-08-09T11:28:38.300Z,103012.94
2022-08-09T11:31:49.202Z,103020.91
2022-08-09T11:34:43.418Z,103017.34
2022-08-09T11:37:18.194Z,103016.34
2022-08-09T11:40:02.842Z,103015.38
2022-08-09T11:42:47.154Z,103019.88
2022-08-09T11:45:22.903Z,103021.72
2022-08-09T11:47:57.911Z,103010.75
2022-08-09T11:50:55.663Z,103009.00
2022-08-09T11:54:00.007Z,103016.09
2022-08-09T11:56:41.610Z,103006.94
2022-08-09T11:59:11.639Z,103014.16
2022-08-09T12:02:16.581Z,103006.97
2022-08-09T12:04:32.235Z,103006.00
2022-08-09T12:07:04.413Z,103000.50
2022-08-09T12:09:35.497Z,103008.66
2022-08-09T12:12:12.298Z,103006.94
2022-08-09T12:15:04.227Z,103012.16
2022-08-09T12:17:34.660Z,103010.31
2022-08-09T12:20:24.517Z,103010.28
2022-08-09T12:22:55.785Z,103014.69
2022-08-09T12:25:37.685Z,103001.19
2022-08-09T12:28:59.248Z,103003.88
2022-08-09T12:31:57.935Z,102997.53
2022-08-09T12:34:13.599Z,102998.41
2022-08-09T12:36:58.844Z,102989.25
2022-08-09T12:39:37.785Z,102990.94
2022-08-09T12:42:09.456Z,102999.09
2022-08-09T12:44:38.128Z,102985.44
2022-08-09T12:47:08.989Z,102986.41
2022-08-09T12:49:39.472Z,102981.81
2022-08-09T12:52:17.894Z,102988.16
2022-08-09T12:55:00.607Z,102987.16
2022-08-09T12:57:46.579Z,102986.19
2022-08-09T13:00:18.405Z,102982.56
2022-08-09T13:02:53.272Z,102995.00
2022-08-09T13:05:23.021Z,102983.34
2022-08-09T13:08:15.451Z,102996.84
2022-08-09T13:10:52.314Z,102981.44
2022-08-09T13:13:37.989Z,102985.91
2022-08-09T13:16:20.950Z,102984.09
2022-08-09T13:18:53.749Z,102976.75
2022-08-09T13:22:37.020Z,102979.50
2022-08-09T13:24:44.433Z,102990.38
2022-08-09T13:27:06.059Z,102983.88
2022-08-09T13:30:03.247Z,102975.69
2022-08-09T13:32:35.326Z,102985.75
2022-08-09T13:35:03.721Z,102984.84
2022-08-09T13:37:52.352Z,102981.13
2022-08-09T13:41:55.279Z,102983.88
2022-08-09T13:43:05.106Z,102987.38
2022-08-09T13:46:42.245Z,102981.94
2022-08-09T13:48:22.724Z,102981.91
2022-08-09T13:50:51.303Z,102981.91
2022-08-09T13:53:18.316Z,102971.03
2022-08-09T13:55:45.082Z,102981.94
2022-08-09T13:58:14.533Z,102978.31
2022-08-09T14:00:50.603Z,102995.41
2022-08-09T14:04:02.623Z,102988.31
2022-08-09T14:06:14.737Z,102988.81
2022-08-09T14:08:52.163Z,102986.09
2022-08-09T14:11:19.143Z,102988.16
2022-08-09T14:14:22.379Z,102985.19
2022-08-09T14:16:33.320Z,102985.09
2022-08-09T14:19:01.581Z,102988.66
2022-08-09T14:21:29.266Z,102985.06
2022-08-09T14:24:01.321Z,102992.22
2022-08-09T14:26:37.704Z,102989.38
2022-08-09T14:29:25.687Z,102979.56
2022-08-09T14:31:54.946Z,102968.44
2022-08-09T14:34:31.910Z,102984.75
2022-08-09T14:37:06.726Z,102979.25
2022-08-09T14:39:45.817Z,102974.94
2022-08-09T14:42:30.425Z,102970.38
2022-08-09T14:46:40.044Z,102973.88
2022-08-09T14:47:58.390Z,102962.03
2022-08-09T14:50:34.636Z,102964.63
2022-08-09T14:53:12.061Z,102964.63
2022-08-09T14:55:50.051Z,102962.84
2022-08-09T14:58:17.302Z,102963.66
2022-08-09T15:00:47.907Z,102969.13
2022-08-09T15:03:16.727Z,102966.50
2022-08-09T15:05:51.286Z,102969.34
2022-08-09T15:08:24.186Z,102956.59
2022-08-09T15:11:01.393Z,102963.91
2022-08-09T15:13:48.304Z,102964.63
2022-08-09T15:16:18.554Z,102967.56
2022-08-09T15:18:49.432Z,102962.78
2022-08-09T15:21:54.855Z,102966.66
2022-08-09T15:24:12.478Z,102963.78
2022-08-09T15:26:45.326Z,102960.13
2022-08-09T15:30:48.926Z,102971.94
2022-08-09T15:32:00.647Z,102957.50
2022-08-09T15:34:34.385Z,102964.47
2022-08-09T15:37:04.133Z,102957.34
2022-08-09T15:39:43.959Z,102954.78
2022-08-09T15:42:18.862Z,102957.50
2022-08-09T15:44:45.865Z,102962.84
2022-08-09T15:47:14.305Z,102964.84
2022-08-09T15:50:03.915Z,102967.56
2022-08-09T15:52:31.951Z,102972.91
2022-08-09T15:54:58.754Z,102959.50
2022-08-09T15:57:35.604Z,102958.56
2022-08-09T16:00:14.806Z,102959.28
2022-08-09T16:02:48.069Z,102959.41
2022-08-09T16:05:22.111Z,102957.72
2022-08-09T16:07:49.305Z,102963.25
2022-08-09T16:10:55.139Z,102960.63
2022-08-09T16:13:03.750Z,102959.50
2022-08-09T16:16:11.022Z,102962.13
2022-08-09T16:18:17.015Z,102958.78
2022-08-09T16:20:46.543Z,102959.50
2022-08-09T16:23:13.333Z,102957.81
2022-08-09T16:25:41.493Z,102956.97
2022-08-09T16:28:12.250Z,102962.19
2022-08-09T16:30:44.405Z,102960.63
2022-08-09T16:33:12.031Z,102959.72
2022-08-09T16:35:57.951Z,102954.13
2022-08-09T16:38:25.214Z,102962.38
2022-08-09T16:40:52.089Z,102956.22
2022-08-09T16:43:18.823Z,102952.25
2022-08-09T16:45:48.077Z,102958.75
2022-08-09T16:48:41.280Z,102950.47
2022-08-09T16:51:08.703Z,102962.28
2022-08-09T16:54:02.504Z,102959.56
2022-08-09T16:56:30.524Z,102954.13
2022-08-09T16:58:58.163Z,102957.84
2022-08-09T17:01:25.546Z,102952.47
2022-08-09T17:03:53.007Z,102953.44
2022-08-09T17:06:29.080Z,102947.19
2022-08-09T17:09:17.576Z,102954.41
2022-08-09T17:11:49.133Z,102945.28
2022-08-09T17:14:27.178Z,102941.75
2022-08-09T17:17:01.652Z,102947.03
2022-08-09T17:20:06.004Z,102949.75
2022-08-09T17:22:23.967Z,102948.91
2022-08-09T17:24:56.130Z,102948.09
2022-08-09T17:27:31.300Z,102950.47
2022-08-09T17:29:57.881Z,102945.28
2022-08-09T17:32:35.109Z,102954.25
2022-08-09T17:35:12.141Z,102946.97
2022-08-09T17:38:11.087Z,102956.16
2022-08-09T17:40:29.362Z,102947.84
2022-08-09T17:42:59.506Z,102941.53
2022-08-09T17:46:02.005Z,102941.72
2022-08-09T17:48:14.950Z,102941.75
2022-08-09T17:50:55.835Z,102936.31
2022-08-09T17:53:23.318Z,102934.44
2022-08-09T17:55:54.219Z,102932.66
2022-08-09T17:58:26.665Z,102922.66
2022-08-09T18:00:54.853Z,102925.50
2022-08-09T18:03:23.584Z,102919.16
2022-08-09T18:05:53.186Z,102916.34
2022-08-09T18:08:22.064Z,102912.91
2022-08-09T18:11:00.768Z,102921.88
2022-08-09T18:13:38.686Z,102916.13
2022-08-09T18:16:09.195Z,102913.72
2022-08-09T18:18:36.282Z,102923.72
2022-08-09T18:21:21.391Z,102920.06
2022-08-09T18:24:12.835Z,102909.19
2022-08-09T18:26:37.891Z,102913.97
2022-08-09T18:30:41.572Z,102916.50
2022-08-09T18:31:56.348Z,102916.34
2022-08-09T18:34:24.016Z,102916.44
2022-08-09T18:36:53.358Z,102922.78
2022-08-09T18:39:22.321Z,102922.03
2022-08-09T18:41:53.238Z,102921.78
2022-08-09T18:44:25.832Z,102919.28
2022-08-09T18:46:53.231Z,102922.06
2022-08-09T18:49:41.605Z,102919.97
2022-08-09T18:52:11.698Z,102928.19
2022-08-09T18:54:39.177Z,102927.50
2022-08-09T18:57:13.429Z,102939.41
2022-08-09T18:59:51.275Z,102933.00
2022-08-09T19:02:19.337Z,102931.00
2022-08-09T19:04:47.996Z,102931.00
2022-08-09T19:07:33.027Z,102933.09
2022-08-09T19:10:16.890Z,102933.00
2022-08-09T19:12:44.829Z,102931.25
2022-08-09T19:15:18.661Z,102943.88
2022-08-09T19:17:54.944Z,102943.88
2022-08-09T19:20:23.363Z,102953.00
2022-08-09T19:22:54.756Z,102942.19
2022-08-09T19:25:42.741Z,102956.78
2022-08-09T19:28:13.395Z,102952.84
2022-08-09T19:30:44.721Z,102954.66
2022-08-09T19:33:19.646Z,102949.31
2022-08-09T19:35:58.096Z,102951.13
2022-08-09T19:38:26.803Z,102945.53
2022-08-09T19:40:54.047Z,102950.97
2022-08-09T19:43:58.161Z,102954.66
2022-08-09T19:46:08.622Z,102956.56
2022-08-09T19:49:00.403Z,102960.09
2022-08-09T19:51:30.774Z,102962.09
2022-08-09T19:54:01.283Z,102956.56
2022-08-09T19:56:28.799Z,102962.28
2022-08-09T19:59:40.490Z,102967.81
2022-08-09T20:02:04.420Z,102959.56
2022-08-09T20:04:37.327Z,102965.91
2022-08-09T20:07:12.403Z,102958.78
2022-08-09T20:09:47.803Z,102960.59
2022-08-09T20:12:27.033Z,102957.81
2022-08-09T20:14:58.437Z,102961.56
2022-08-09T20:17:26.217Z,102954.53
2022-08-09T20:19:57.964Z,102957.22
2022-08-09T20:22:32.403Z,102961.69
2022-08-09T20:25:04.928Z,102960.72
2022-08-09T20:27:31.524Z,102960.84
2022-08-09T20:29:58.874Z,102964.44
2022-08-09T20:32:30.750Z,102958.09
2022-08-09T20:35:01.812Z,102956.34
2022-08-09T20:38:19.502Z,102957.25
2022-08-09T20:40:24.851Z,102961.72
2022-08-09T20:42:59.885Z,102959.25
2022-08-09T20:45:59.628Z,102950.25
2022-08-09T20:48:20.917Z,102947.56
2022-08-09T20:50:51.163Z,102949.47
2022-08-09T20:53:35.733Z,102940.34
2022-08-09T20:56:20.299Z,102950.28
2022-08-09T20:58:57.898Z,102949.50
2022-08-09T21:01:34.463Z,102949.63
2022-08-09T21:05:51.969Z,102954.00
2022-08-09T21:07:12.590Z,102948.81
2022-08-09T21:09:56.967Z,102944.28
2022-08-09T21:15:13.783Z,102939.81
2022-08-09T21:18:23.189Z,102939.88
2022-08-09T21:20:29.905Z,102935.38
2022-08-09T21:22:57.870Z,102934.44
2022-08-09T21:25:43.965Z,102936.22
2022-08-09T21:28:34.418Z,102944.44
2022-08-09T21:31:17.803Z,102943.56
2022-08-09T21:33:52.071Z,102940.00
2022-08-09T21:36:27.880Z,102941.88
2022-08-09T21:38:57.259Z,102945.59
2022-08-09T21:41:59.865Z,102947.34
2022-08-09T21:44:12.007Z,102943.69
2022-08-09T21:46:42.371Z,102942.78
2022-08-09T21:49:09.818Z,102949.25
2022-08-09T21:51:43.933Z,102939.34
2022-08-09T21:54:12.175Z,102945.59
2022-08-09T21:56:44.559Z,102948.34
2022-08-09T21:59:23.131Z,102951.94
2022-08-09T22:02:00.932Z,102947.53
2022-08-09T22:04:55.693Z,102943.00
2022-08-09T22:07:35.085Z,102944.78
2022-08-09T22:10:04.506Z,102945.69
2022-08-09T22:12:31.982Z,102951.13
2022-08-09T22:14:58.798Z,102951.28
2022-08-09T22:17:31.871Z,102947.47
2022-08-09T22:20:00.642Z,102956.59
2022-08-09T22:22:29.173Z,102951.19
2022-08-09T22:26:06.706Z,102945.91
2022-08-09T22:27:42.554Z,102935.00
2022-08-09T22:30:09.798Z,102941.28
2022-08-09T22:32:37.424Z,102944.03
2022-08-09T22:35:06.860Z,102937.06
2022-08-09T22:38:06.956Z,102932.44
2022-08-09T22:40:35.336Z,102940.69
2022-08-09T22:43:16.096Z,102936.22
2022-08-09T22:48:11.986Z,102925.28
2022-08-09T22:48:35.968Z,102920.81
2022-08-09T22:51:10.767Z,102924.53
2022-08-09T22:54:02.406Z,102919.03
2022-08-09T22:56:33.285Z,102917.31
2022-08-09T22:59:06.110Z,102916.38
2022-08-09T23:01:49.658Z,102920.81
2022-08-09T23:04:16.402Z,102911.84
2022-08-09T23:07:02.703Z,102914.59
2022-08-09T23:09:29.399Z,102915.50
2022-08-09T23:11:56.042Z,102918.34
2022-08-09T23:14:23.460Z,102924.69
2022-08-09T23:17:04.480Z,102915.47
2022-08-09T23:19:31.066Z,102912.94
2022-08-09T23:22:17.648Z,102908.41
2022-08-09T23:24:44.235Z,102911.03
2022-08-09T23:27:15.466Z,102908.38
2022-08-09T23:29:42.249Z,102906.59
2022-08-09T23:32:08.924Z,102903.03
2022-08-09T23:34:35.565Z,102908.59
2022-08-09T23:37:02.383Z,102905.00
2022-08-09T23:39:29.016Z,102904.91
2022-08-09T23:41:55.644Z,102899.41
2022-08-09T23:44:22.251Z,102899.47
2022-08-09T23:46:57.393Z,102909.53
2022-08-09T23:49:25.236Z,102900.47
2022-08-09T23:51:52.884Z,102901.28
2022-08-09T23:54:19.940Z,102901.38
2022-08-09T23:56:53.801Z,102902.31
2022-08-09T23:59:22.778Z,102905.16
